Pukou, China
Current Conditions -  °F | °C
As of 5:00 PM on Friday 24 Oct 2014 (Local Time) from ZSNJ Reporting Station
Clear Clear  
Wind Chill: 75°   Ceiling: Unl
Heat Index: 75°   Visibility: 6mi
Dew Point: 46°   Wind: 4mph
Humidity: 36%   Direction: 200°SSW
Pressure: 30"   Gusts: NA
Location:  32.1°N, 118.71°E
Report Text: ZSNJ 240900Z 20002MPS 110V240 CAVOK 24/08 Q1016 NOSIG
Loading
Personal Weather Stations






























Interactive Weather Map
Tropical Storm Tracking
New forecast layout! Learn more

10-Day Weather Forecast

Advertisements
Track Severe Weather on mobile